createdAt,value
2018-06-08T00:00:21.361Z,7.07
2018-06-08T00:02:49.563Z,7.73
2018-06-08T00:05:17.762Z,8.40
2018-06-08T00:07:45.959Z,6.40
2018-06-08T00:10:14.147Z,7.60
2018-06-08T00:12:42.389Z,6.77
2018-06-08T00:15:10.642Z,7.47
2018-06-08T00:17:38.902Z,7.80
2018-06-08T00:20:07.099Z,8.87
2018-06-08T00:22:35.324Z,7.07
2018-06-08T00:25:03.621Z,8.50
2018-06-08T00:27:31.885Z,9.43
2018-06-08T00:30:00.095Z,8.93
2018-06-08T00:32:28.282Z,9.33
2018-06-08T00:34:56.496Z,9.50
2018-06-08T00:37:24.687Z,8.97
2018-06-08T00:39:52.900Z,7.73
2018-06-08T00:42:21.144Z,10.70
2018-06-08T00:44:49.424Z,10.17
2018-06-08T00:47:17.664Z,8.70
2018-06-08T00:49:45.897Z,8.73
2018-06-08T00:52:14.153Z,7.73
2018-06-08T00:54:42.332Z,8.30
2018-06-08T00:57:10.550Z,10.07
2018-06-08T00:59:38.748Z,8.80
2018-06-08T01:02:06.923Z,9.33
2018-06-08T01:04:35.112Z,8.93
2018-06-08T01:07:03.325Z,9.00
2018-06-08T01:09:31.528Z,8.10
2018-06-08T01:11:59.795Z,8.10
2018-06-08T01:14:30.945Z,8.00
2018-06-08T01:16:59.977Z,9.60
2018-06-08T01:19:28.916Z,8.70
2018-06-08T01:21:57.165Z,8.50
2018-06-08T01:24:25.375Z,9.27
2018-06-08T01:26:53.579Z,7.50
2018-06-08T01:29:21.786Z,8.93
2018-06-08T01:31:49.967Z,6.97
2018-06-08T01:34:18.224Z,8.50
2018-06-08T01:36:46.447Z,7.20
2018-06-08T01:39:14.643Z,9.00
2018-06-08T01:41:42.893Z,8.20
2018-06-08T01:44:11.143Z,7.50
2018-06-08T01:46:39.420Z,7.90
2018-06-08T01:49:07.611Z,8.13
2018-06-08T01:51:35.875Z,7.00
2018-06-08T01:54:04.138Z,7.87
2018-06-08T01:56:32.311Z,6.23
2018-06-08T01:59:00.506Z,9.03
2018-06-08T02:01:28.947Z,7.43
2018-06-08T02:03:57.210Z,9.50
2018-06-08T02:06:25.395Z,9.67
2018-06-08T02:08:53.567Z,9.27
2018-06-08T02:11:21.857Z,10.80
2018-06-08T02:13:50.105Z,9.80
2018-06-08T02:16:18.330Z,9.17
2018-06-08T02:18:46.512Z,9.17
2018-06-08T02:21:14.834Z,9.43
2018-06-08T02:23:43.055Z,8.50
2018-06-08T02:26:11.243Z,8.60
2018-06-08T02:28:39.438Z,8.20
2018-06-08T02:31:07.833Z,9.10
2018-06-08T02:33:36.077Z,9.80
2018-06-08T02:36:04.283Z,8.37
2018-06-08T02:38:32.472Z,8.90
2018-06-08T02:41:00.670Z,9.10
2018-06-08T02:43:28.899Z,11.00
2018-06-08T02:45:57.080Z,9.40
2018-06-08T02:48:25.283Z,10.00
2018-06-08T02:50:53.467Z,9.20
2018-06-08T02:53:21.682Z,9.20
2018-06-08T02:55:49.881Z,9.13
2018-06-08T02:58:18.063Z,9.30
2018-06-08T03:00:46.266Z,9.27
2018-06-08T03:03:14.501Z,8.23
2018-06-08T03:05:42.719Z,8.23
2018-06-08T03:08:10.897Z,10.40
2018-06-08T03:10:39.091Z,9.07
2018-06-08T03:13:07.349Z,7.63
2018-06-08T03:15:35.608Z,8.83
2018-06-08T03:18:03.862Z,8.40
2018-06-08T03:20:32.102Z,9.27
2018-06-08T03:23:00.347Z,7.63
2018-06-08T03:25:28.555Z,7.90
2018-06-08T03:27:56.757Z,9.47
2018-06-08T03:30:24.963Z,8.60
2018-06-08T03:32:53.153Z,9.60
2018-06-08T03:35:21.343Z,12.10
2018-06-08T03:37:49.547Z,8.50
2018-06-08T03:40:17.752Z,8.10
2018-06-08T03:42:46.025Z,9.07
2018-06-08T03:45:14.280Z,10.50
2018-06-08T03:47:43.332Z,10.90
2018-06-08T03:50:11.536Z,9.47
2018-06-08T03:52:39.718Z,8.03
2018-06-08T03:55:07.907Z,9.40
2018-06-08T03:57:36.095Z,9.07
2018-06-08T04:00:04.288Z,7.97
2018-06-08T04:02:32.544Z,10.57
2018-06-08T04:05:00.727Z,10.43
2018-06-08T04:07:28.919Z,9.10
2018-06-08T04:09:57.133Z,10.73
2018-06-08T04:12:25.243Z,10.33
2018-06-08T04:14:53.457Z,9.83
2018-06-08T04:17:21.656Z,10.63
2018-06-08T04:19:49.863Z,11.80
2018-06-08T04:22:18.049Z,9.93
2018-06-08T04:24:46.269Z,9.30
2018-06-08T04:27:14.465Z,12.73
2018-06-08T04:29:42.676Z,12.10
2018-06-08T04:32:10.890Z,11.80
2018-06-08T04:34:39.083Z,11.27
2018-06-08T04:37:07.286Z,11.43
2018-06-08T04:39:35.505Z,11.20
2018-06-08T04:42:03.769Z,13.00
2018-06-08T04:44:31.991Z,11.10
2018-06-08T04:47:00.192Z,9.10
2018-06-08T04:49:28.217Z,13.07
2018-06-08T04:51:56.432Z,11.00
2018-06-08T04:54:24.627Z,11.37
2018-06-08T04:56:52.845Z,11.07
2018-06-08T04:59:20.947Z,10.63
2018-06-08T05:01:49.329Z,10.40
2018-06-08T05:04:17.545Z,11.30
2018-06-08T05:06:45.738Z,9.10
2018-06-08T05:09:13.965Z,12.47
2018-06-08T05:11:42.205Z,9.17
2018-06-08T05:14:10.411Z,11.57
2018-06-08T05:16:38.624Z,10.17
2018-06-08T05:19:06.840Z,10.53
2018-06-08T05:21:35.100Z,10.20
2018-06-08T05:24:03.316Z,11.90
2018-06-08T05:26:31.528Z,10.70
2018-06-08T05:28:59.711Z,9.87
2018-06-08T05:31:28.076Z,8.63
2018-06-08T05:33:56.328Z,9.77
2018-06-08T05:36:24.531Z,10.73
2018-06-08T05:38:52.732Z,9.63
2018-06-08T05:41:21.006Z,14.10
2018-06-08T05:43:49.191Z,9.40
2018-06-08T05:46:17.435Z,11.93
2018-06-08T05:48:46.806Z,11.67
2018-06-08T05:51:15.010Z,12.90
2018-06-08T05:53:43.256Z,11.00
2018-06-08T05:56:11.413Z,10.43
2018-06-08T05:58:39.647Z,12.90
2018-06-08T06:01:07.883Z,13.27
2018-06-08T06:03:36.039Z,12.53
2018-06-08T06:06:04.267Z,11.73
2018-06-08T06:08:32.543Z,11.90
2018-06-08T06:11:00.751Z,12.80
2018-06-08T06:13:28.951Z,9.93
2018-06-08T06:15:57.145Z,13.20
2018-06-08T06:18:25.359Z,12.00
2018-06-08T06:20:53.548Z,12.63
2018-06-08T06:23:21.755Z,11.30
2018-06-08T06:25:49.958Z,12.43
2018-06-08T06:28:18.142Z,11.90
2018-06-08T06:30:46.358Z,12.00
2018-06-08T06:33:14.556Z,11.90
2018-06-08T06:35:42.775Z,12.60
2018-06-08T06:38:10.967Z,13.17
2018-06-08T06:40:39.175Z,12.73
2018-06-08T06:43:07.371Z,11.77
2018-06-08T06:45:35.555Z,13.03
2018-06-08T06:48:03.599Z,12.13
2018-06-08T06:50:31.786Z,11.67
2018-06-08T06:52:59.962Z,11.70
2018-06-08T06:55:28.188Z,12.07
2018-06-08T06:57:56.379Z,11.90
2018-06-08T07:00:24.587Z,11.43
2018-06-08T07:02:52.854Z,10.80
2018-06-08T07:05:21.023Z,12.90
2018-06-08T07:07:49.227Z,11.97
2018-06-08T07:10:17.438Z,11.97
2018-06-08T07:12:45.670Z,13.90
2018-06-08T07:15:13.823Z,13.43
2018-06-08T07:17:41.987Z,12.20
2018-06-08T07:20:10.203Z,11.37
2018-06-08T07:22:38.379Z,11.83
2018-06-08T07:25:06.597Z,13.77
2018-06-08T07:27:34.787Z,14.13
2018-06-08T07:30:02.996Z,13.40
2018-06-08T07:32:31.259Z,12.40
2018-06-08T07:34:59.452Z,12.53
2018-06-08T07:37:27.727Z,12.60
2018-06-08T07:39:55.938Z,14.10
2018-06-08T07:42:24.112Z,10.53
2018-06-08T07:44:52.304Z,11.60
2018-06-08T07:47:20.491Z,13.07
2018-06-08T07:49:48.703Z,11.80
2018-06-08T07:52:16.891Z,11.47
2018-06-08T07:54:45.091Z,13.37
2018-06-08T07:57:13.389Z,12.17
2018-06-08T07:59:41.579Z,14.27
2018-06-08T08:02:09.853Z,14.50
2018-06-08T08:04:38.079Z,12.73
2018-06-08T08:07:06.267Z,12.07
2018-06-08T08:09:34.451Z,12.90
2018-06-08T08:12:02.675Z,12.00
2018-06-08T08:14:30.883Z,10.90
2018-06-08T08:16:59.130Z,11.63
2018-06-08T08:19:27.354Z,11.70
2018-06-08T08:21:55.576Z,12.80
2018-06-08T08:24:23.788Z,9.30
2018-06-08T08:26:52.256Z,12.10
2018-06-08T08:29:20.455Z,11.30
2018-06-08T08:31:48.738Z,10.57
2018-06-08T08:34:16.975Z,10.50
2018-06-08T08:36:45.151Z,11.13
2018-06-08T08:39:13.359Z,10.13
2018-06-08T08:41:41.623Z,11.47
2018-06-08T08:44:09.802Z,10.77
2018-06-08T08:46:38.004Z,10.60
2018-06-08T08:49:06.199Z,10.53
2018-06-08T08:51:34.519Z,9.60
2018-06-08T08:54:02.670Z,10.33
2018-06-08T08:56:30.859Z,8.87
2018-06-08T08:58:59.047Z,9.47
2018-06-08T09:01:27.371Z,9.00
2018-06-08T09:03:55.561Z,8.20
2018-06-08T09:06:23.753Z,11.33
2018-06-08T09:08:51.947Z,9.60
2018-06-08T09:11:20.254Z,8.47
2018-06-08T09:13:48.449Z,8.67
2018-06-08T09:16:16.402Z,8.00
2018-06-08T09:18:44.621Z,8.83
2018-06-08T09:21:12.827Z,9.60
2018-06-08T09:23:41.063Z,9.87
2018-06-08T09:26:09.234Z,9.70
2018-06-08T09:28:37.422Z,9.50
2018-06-08T09:31:05.623Z,9.23
2018-06-08T09:33:33.811Z,9.17
2018-06-08T09:36:02.024Z,8.43
2018-06-08T09:38:30.203Z,9.63
2018-06-08T09:40:58.392Z,8.67
2018-06-08T09:43:26.605Z,9.63
2018-06-08T09:45:54.805Z,8.90
2018-06-08T09:48:23.073Z,10.13
2018-06-08T09:50:51.266Z,10.63
2018-06-08T09:53:19.607Z,9.57
2018-06-08T09:55:47.795Z,7.67
2018-06-08T09:58:15.968Z,8.77
2018-06-08T10:00:43.932Z,7.50
2018-06-08T10:03:12.132Z,8.60
2018-06-08T10:05:40.311Z,8.13
2018-06-08T10:08:08.527Z,9.00
2018-06-08T10:10:36.720Z,7.37
2018-06-08T10:13:04.951Z,7.50
2018-06-08T10:15:33.135Z,7.77
2018-06-08T10:18:01.359Z,8.20
2018-06-08T10:20:29.559Z,8.93
2018-06-08T10:22:57.506Z,7.77
2018-06-08T10:25:25.721Z,7.30
2018-06-08T10:27:53.694Z,7.43
2018-06-08T10:30:21.871Z,7.10
2018-06-08T10:32:49.801Z,7.40
2018-06-08T10:35:18.012Z,7.77
2018-06-08T10:37:46.214Z,8.17
2018-06-08T10:40:14.412Z,7.60
2018-06-08T10:42:42.599Z,7.33
2018-06-08T10:45:10.806Z,7.20
2018-06-08T10:47:39.020Z,6.00
2018-06-08T10:50:07.171Z,6.90
2018-06-08T10:52:35.361Z,6.90
2018-06-08T10:55:03.570Z,6.30
2018-06-08T10:57:31.835Z,7.40
2018-06-08T10:59:59.969Z,5.57
2018-06-08T11:02:28.162Z,6.57
2018-06-08T11:04:56.347Z,6.33
2018-06-08T11:07:24.541Z,6.23
2018-06-08T11:09:52.811Z,7.30
2018-06-08T11:12:21.058Z,5.90
2018-06-08T11:14:49.244Z,7.50
2018-06-08T11:17:17.438Z,6.73
2018-06-08T11:19:45.640Z,7.20
2018-06-08T11:22:13.885Z,6.20
2018-06-08T11:24:42.074Z,5.80
2018-06-08T11:27:10.963Z,5.03
2018-06-08T11:29:39.152Z,5.57
2018-06-08T11:32:07.394Z,5.60
2018-06-08T11:34:35.597Z,6.50
2018-06-08T11:37:03.793Z,6.27
2018-06-08T11:39:32.007Z,5.53
2018-06-08T11:42:00.251Z,5.33
2018-06-08T11:44:28.427Z,6.00
2018-06-08T11:46:56.640Z,5.00
2018-06-08T11:49:24.595Z,5.73
2018-06-08T11:51:52.864Z,5.97
2018-06-08T11:54:21.097Z,5.27
2018-06-08T11:56:49.265Z,4.87
2018-06-08T11:59:17.467Z,4.73
2018-06-08T12:01:45.697Z,4.20
2018-06-08T12:04:14.034Z,6.00
2018-06-08T12:06:42.215Z,4.60
2018-06-08T12:09:10.407Z,5.30
2018-06-08T12:11:38.667Z,4.70
2018-06-08T12:14:06.849Z,5.40
2018-06-08T12:16:35.059Z,4.33
2018-06-08T12:19:03.255Z,5.17
2018-06-08T12:21:31.497Z,5.80
2018-06-08T12:23:59.883Z,5.83
2018-06-08T12:26:28.063Z,5.20
2018-06-08T12:28:56.264Z,5.53
2018-06-08T12:31:24.818Z,5.07
2018-06-08T12:33:58.316Z,5.03
2018-06-08T12:36:26.487Z,5.87
2018-06-08T12:38:54.680Z,5.50
2018-06-08T12:41:22.957Z,6.53
2018-06-08T12:43:51.115Z,6.87
2018-06-08T12:46:19.350Z,5.90
2018-06-08T12:48:47.551Z,5.57
2018-06-08T12:51:15.765Z,5.00
2018-06-08T12:53:43.978Z,5.70
2018-06-08T12:56:12.156Z,4.80
2018-06-08T12:58:40.372Z,5.77
2018-06-08T13:01:08.475Z,4.60
2018-06-08T13:03:36.839Z,4.80
2018-06-08T13:06:05.067Z,5.10
2018-06-08T13:08:33.258Z,5.40
2018-06-08T13:11:01.467Z,5.10
2018-06-08T13:13:29.508Z,5.63
2018-06-08T13:15:57.692Z,5.70
2018-06-08T13:18:25.911Z,4.43
2018-06-08T13:20:54.836Z,4.40
2018-06-08T13:23:23.079Z,4.37
2018-06-08T13:25:51.259Z,4.10
2018-06-08T13:28:19.431Z,4.47
2018-06-08T13:30:47.639Z,5.07
2018-06-08T13:33:15.886Z,4.20
2018-06-08T13:35:44.088Z,4.53
2018-06-08T13:38:12.271Z,4.67
2018-06-08T13:40:40.446Z,4.40
2018-06-08T13:43:08.655Z,4.60
2018-06-08T13:45:36.838Z,4.17
2018-06-08T13:48:05.039Z,3.63
2018-06-08T13:50:33.225Z,3.90
2018-06-08T13:53:01.432Z,4.70
2018-06-08T13:55:29.624Z,3.80
2018-06-08T13:57:57.794Z,4.33
2018-06-08T14:00:26.012Z,4.00
2018-06-08T14:02:54.196Z,3.90
2018-06-08T14:05:22.398Z,3.73
2018-06-08T14:07:50.600Z,4.20
2018-06-08T14:10:18.791Z,3.50
2018-06-08T14:12:47.002Z,4.27
2018-06-08T14:15:15.172Z,3.77
2018-06-08T14:17:43.875Z,3.60
2018-06-08T14:20:12.087Z,3.60
2018-06-08T14:22:40.278Z,3.13
2018-06-08T14:25:08.488Z,4.53
2018-06-08T14:27:36.743Z,4.90
2018-06-08T14:30:05.495Z,4.60
2018-06-08T14:32:33.732Z,2.97
2018-06-08T14:35:01.984Z,4.00
2018-06-08T14:37:30.585Z,3.93
2018-06-08T14:39:58.760Z,3.87
2018-06-08T14:42:27.587Z,3.40
2018-06-08T14:44:55.788Z,4.17
2018-06-08T14:47:23.963Z,3.30
2018-06-08T14:49:52.258Z,3.37
2018-06-08T14:52:20.474Z,4.37
2018-06-08T14:54:48.716Z,3.73
2018-06-08T14:57:16.971Z,3.83
2018-06-08T14:59:45.835Z,4.00
2018-06-08T15:02:14.045Z,4.17
2018-06-08T15:04:42.319Z,4.17
2018-06-08T15:07:10.436Z,4.13
2018-06-08T15:09:38.648Z,3.70
2018-06-08T15:12:06.825Z,3.50
2018-06-08T15:14:35.019Z,3.70
2018-06-08T15:17:02.969Z,4.37
2018-06-08T15:19:31.167Z,3.93
2018-06-08T15:21:59.427Z,4.30
2018-06-08T15:24:27.630Z,4.30
2018-06-08T15:26:55.855Z,3.70
2018-06-08T15:29:24.116Z,3.73
2018-06-08T15:31:52.514Z,4.13
2018-06-08T15:34:20.693Z,3.17
2018-06-08T15:36:48.886Z,2.93
2018-06-08T15:39:17.086Z,3.83
2018-06-08T15:41:45.317Z,3.43
2018-06-08T15:44:13.505Z,3.27
2018-06-08T15:46:41.714Z,3.50
2018-06-08T15:49:11.715Z,3.23
2018-06-08T15:51:40.298Z,3.53
2018-06-08T15:54:08.506Z,4.20
2018-06-08T15:56:36.687Z,3.73
2018-06-08T15:59:04.922Z,5.17
2018-06-08T16:01:32.915Z,5.30
2018-06-08T16:04:01.120Z,5.40
2018-06-08T16:06:29.322Z,5.47
2018-06-08T16:08:57.516Z,5.23
2018-06-08T16:11:25.869Z,5.60
2018-06-08T16:13:54.072Z,6.10
2018-06-08T16:16:22.256Z,5.40
2018-06-08T16:18:50.447Z,6.73
2018-06-08T16:21:18.705Z,5.73
2018-06-08T16:23:46.684Z,6.60
2018-06-08T16:26:14.891Z,6.30
2018-06-08T16:28:43.095Z,7.00
2018-06-08T16:31:11.262Z,8.20
2018-06-08T16:33:39.451Z,7.93
2018-06-08T16:36:07.685Z,6.30
2018-06-08T16:38:35.858Z,7.40
2018-06-08T16:41:04.092Z,8.73
2018-06-08T16:43:32.283Z,7.37
2018-06-08T16:46:00.488Z,7.10
2018-06-08T16:48:28.699Z,6.90
2018-06-08T16:50:56.904Z,7.80
2018-06-08T16:53:25.073Z,6.47
2018-06-08T16:55:53.259Z,6.47
2018-06-08T16:58:21.438Z,6.30
2018-06-08T17:00:49.656Z,7.20
2018-06-08T17:03:17.836Z,7.23
2018-06-08T17:05:46.063Z,6.47
2018-06-08T17:08:14.220Z,6.67
2018-06-08T17:10:42.415Z,6.60
2018-06-08T17:13:10.639Z,5.63
2018-06-08T17:15:38.835Z,5.30
2018-06-08T17:18:07.126Z,4.90
2018-06-08T17:20:35.248Z,4.73
2018-06-08T17:23:03.418Z,5.80
2018-06-08T17:25:31.639Z,6.70
2018-06-08T17:27:59.839Z,6.00
2018-06-08T17:30:27.783Z,5.87
2018-06-08T17:32:55.977Z,6.27
2018-06-08T17:35:24.174Z,5.80
2018-06-08T17:37:52.383Z,7.67
2018-06-08T17:40:20.659Z,7.40
2018-06-08T17:42:48.860Z,5.77
2018-06-08T17:45:17.104Z,6.80
2018-06-08T17:47:45.272Z,5.70
2018-06-08T17:50:13.500Z,6.90
2018-06-08T17:52:41.675Z,5.97
2018-06-08T17:55:09.870Z,6.60
2018-06-08T17:57:40.434Z,7.20
2018-06-08T18:00:09.035Z,6.80
2018-06-08T18:02:37.366Z,6.80
2018-06-08T18:05:06.111Z,5.40
2018-06-08T18:07:34.319Z,6.50
2018-06-08T18:10:02.509Z,6.93
2018-06-08T18:12:30.699Z,6.53
2018-06-08T18:14:58.919Z,5.93
2018-06-08T18:17:27.132Z,5.87
2018-06-08T18:19:55.335Z,6.10
2018-06-08T18:22:23.560Z,5.93
2018-06-08T18:24:51.737Z,6.33
2018-06-08T18:27:19.947Z,5.40
2018-06-08T18:29:48.152Z,6.57
2018-06-08T18:32:16.345Z,5.60
2018-06-08T18:34:44.736Z,5.73
2018-06-08T18:37:12.929Z,6.10
2018-06-08T18:39:41.405Z,7.03
2018-06-08T18:42:09.583Z,6.07
2018-06-08T18:44:37.791Z,6.90
2018-06-08T18:47:06.011Z,5.50
2018-06-08T18:49:34.219Z,6.90
2018-06-08T18:52:02.464Z,7.10
2018-06-08T18:54:30.647Z,7.03
2018-06-08T18:56:58.844Z,5.60
2018-06-08T18:59:27.030Z,6.60
2018-06-08T19:01:55.290Z,5.17
2018-06-08T19:04:23.492Z,7.20
2018-06-08T19:06:51.668Z,7.57
2018-06-08T19:09:19.894Z,5.70
2018-06-08T19:11:48.086Z,6.73
2018-06-08T19:14:16.290Z,5.97
2018-06-08T19:16:44.482Z,6.83
2018-06-08T19:19:12.683Z,7.13
2018-06-08T19:21:41.370Z,6.07
2018-06-08T19:24:09.588Z,7.77
2018-06-08T19:26:37.774Z,6.63
2018-06-08T19:29:05.993Z,7.63
2018-06-08T19:31:34.273Z,7.17
2018-06-08T19:34:02.487Z,7.80
2018-06-08T19:36:30.691Z,7.27
2018-06-08T19:38:58.891Z,7.50
2018-06-08T19:41:27.208Z,7.80
2018-06-08T19:43:55.396Z,7.77
2018-06-08T19:46:23.601Z,7.27
2018-06-08T19:48:52.019Z,7.53
2018-06-08T19:51:20.310Z,6.90
2018-06-08T19:53:48.510Z,6.90
2018-06-08T19:56:16.715Z,6.73
2018-06-08T19:58:44.976Z,7.40
2018-06-08T20:01:13.123Z,7.80
2018-06-08T20:03:41.383Z,10.50
2018-06-08T20:06:09.579Z,7.53
2018-06-08T20:08:37.859Z,7.80
2018-06-08T20:11:06.059Z,8.13
2018-06-08T20:13:34.232Z,7.70
2018-06-08T20:16:02.705Z,7.20
2018-06-08T20:18:30.911Z,6.63
2018-06-08T20:20:59.115Z,7.70
2018-06-08T20:23:27.327Z,8.43
2018-06-08T20:25:55.534Z,6.93
2018-06-08T20:28:23.765Z,7.93
2018-06-08T20:30:51.984Z,7.60
2018-06-08T20:33:20.163Z,6.93
2018-06-08T20:35:48.354Z,7.60
2018-06-08T20:38:16.539Z,6.70
2018-06-08T20:40:44.751Z,6.70
2018-06-08T20:43:12.980Z,7.93
2018-06-08T20:45:41.162Z,7.17
2018-06-08T20:48:09.411Z,6.20
2018-06-08T20:50:37.599Z,6.80
2018-06-08T20:53:05.871Z,7.33
2018-06-08T20:55:34.073Z,7.00
2018-06-08T20:58:02.495Z,7.17
2018-06-08T21:00:30.700Z,6.23
2018-06-08T21:02:58.970Z,7.10
2018-06-08T21:05:27.160Z,7.80
2018-06-08T21:07:55.275Z,6.27
2018-06-08T21:10:23.460Z,6.50
2018-06-08T21:12:51.736Z,7.23
2018-06-08T21:15:19.985Z,7.47
2018-06-08T21:17:48.224Z,8.10
2018-06-08T21:20:16.511Z,7.63
2018-06-08T21:22:44.691Z,7.80
2018-06-08T21:25:12.902Z,7.37
2018-06-08T21:27:41.095Z,6.40
2018-06-08T21:30:09.295Z,6.30
2018-06-08T21:32:37.491Z,5.23
2018-06-08T21:35:05.968Z,6.50
2018-06-08T21:37:34.343Z,7.33
2018-06-08T21:40:02.512Z,6.57
2018-06-08T21:42:30.768Z,6.33
2018-06-08T21:44:58.955Z,5.07
2018-06-08T21:47:27.135Z,5.07
2018-06-08T21:49:55.371Z,6.03
2018-06-08T21:52:23.640Z,5.73
2018-06-08T21:54:51.892Z,5.23
2018-06-08T21:57:20.122Z,5.80
2018-06-08T21:59:48.362Z,5.43
2018-06-08T22:02:16.602Z,6.23
2018-06-08T22:04:44.816Z,5.67
2018-06-08T22:07:13.019Z,4.70
2018-06-08T22:09:41.200Z,5.00
2018-06-08T22:12:09.627Z,5.90
2018-06-08T22:14:37.819Z,5.77
2018-06-08T22:17:06.155Z,4.63
2018-06-08T22:19:34.339Z,5.07
2018-06-08T22:22:02.589Z,4.97
2018-06-08T22:24:30.767Z,4.80
2018-06-08T22:26:58.983Z,5.00
2018-06-08T22:29:27.179Z,3.87
2018-06-08T22:31:55.376Z,4.83
2018-06-08T22:34:23.466Z,4.00
2018-06-08T22:36:51.646Z,5.80
2018-06-08T22:39:19.855Z,4.73
2018-06-08T22:41:48.121Z,4.90
2018-06-08T22:44:16.372Z,5.53
2018-06-08T22:46:44.616Z,4.57
2018-06-08T22:49:12.811Z,6.60
2018-06-08T22:51:41.100Z,5.40
2018-06-08T22:54:09.336Z,5.80
2018-06-08T22:56:37.648Z,6.93
2018-06-08T22:59:05.899Z,4.73
2018-06-08T23:01:34.161Z,5.00
2018-06-08T23:04:02.540Z,5.03
2018-06-08T23:06:30.723Z,5.50
2018-06-08T23:08:58.929Z,5.37
2018-06-08T23:11:27.162Z,6.20
2018-06-08T23:13:55.357Z,5.00
2018-06-08T23:16:23.579Z,5.53
2018-06-08T23:18:51.759Z,5.07
2018-06-08T23:21:20.022Z,5.47
2018-06-08T23:23:48.194Z,5.50
2018-06-08T23:26:16.391Z,5.00
2018-06-08T23:28:44.599Z,4.97
2018-06-08T23:31:12.702Z,5.33
2018-06-08T23:33:40.912Z,5.50
2018-06-08T23:36:09.106Z,4.87
2018-06-08T23:38:37.303Z,5.50
2018-06-08T23:41:05.564Z,4.77
2018-06-08T23:43:33.808Z,5.50
2018-06-08T23:46:02.004Z,5.90
2018-06-08T23:48:30.160Z,6.23
2018-06-08T23:50:58.366Z,6.70
2018-06-08T23:53:26.568Z,5.13
2018-06-08T23:55:54.746Z,5.70
2018-06-08T23:58:22.946Z,5.77
